Impacts METAR Board INFO
IDs:

KCLE - Cleveland/Hopkins In, OH, US

Updated at: 0201 UTC 24 Jan 2018
Potential Impact None Slight Moderate High
Time23/14Z 23/15Z 23/16Z 23/17Z 23/18Z 23/19Z 23/20Z 23/21Z 23/22Z 23/23Z 24/00Z 24/01Z 24/02Z
VIS10 10 10 10 10 10 10 2.5 10 10 6 9 9
CIG60 15 16 18 25 23 22 13 16 16 15 18 18
CoverOVCOVCOVCOVCOVCOVCOVCOVCOVCOVCOVCOVCOVC
FltCatVFRMVFRMVFRMVFRMVFRMVFRMVFRIFRMVFRMVFRMVFRMVFRMVFR
WX-----RA-------DZ-RA BR-----SN BR-SN-SN
WDir230220240240240220240260260260260250270
WSpd11 13 14 18 21 13 22 21 20 17 17 18 16
WGst-- -- 23 23 29 20 31 24 28 25 25 23 24
Raw hourly METARs
KCLE 231351Z 23011KT 10SM OVC060 04/02 A2964 RMK AO2 PK WND 25027/1313 SLP037 T00440017 $
KCLE 231451Z 22013KT 10SM BKN015 OVC026 04/02 A2965 RMK AO2 SLP042 T00440017 51024 $
KCLE 231551Z 24014G23KT 10SM -RA OVC016 04/02 A2967 RMK AO2 RAB48 SLP049 P0000 T00440022 $
KCLE 231651Z 24018G23KT 10SM BKN018 OVC024 04/02 A2967 RMK AO2 RAE21 SLP048 P0000 T00440017
KCLE 231751Z 24021G29KT 10SM BKN025 OVC034 05/01 A2967 RMK AO2 PK WND 24029/1751 SLP049 60000 T00500006 10061 20044 51005
KCLE 231851Z 22013G20KT 10SM BKN023 BKN032 OVC043 04/01 A2968 RMK AO2 PK WND 25030/1801 SLP052 T00440006
KCLE 231951Z 24022G31KT 10SM -DZ OVC022 04/00 A2970 RMK AO2 PK WND 25031/1945 DZB45 SLP061 P0000 T00390000
KCLE 232104Z 26021G24KT 2 1/2SM -RA BR BKN013 OVC021 03/01 A2975 RMK AO2 DZE02RAB02 PRESRR P0001 T00280006
KCLE 232151Z 26020G28KT 10SM OVC016 03/00 A2979 RMK AO2 PK WND 25029/2135 SLPNO DZE02RAB02E43 P0002 T00280000 $
KCLE 232251Z 26017G25KT 10SM BKN016 OVC021 02/M01 A2983 RMK AO2 PK WND 26028/2203 SLPNO T00221006 $
KCLE 232351Z 26017G25KT 6SM -SN BR BKN015 OVC021 02/M01 A2987 RMK AO2 PK WND 26030/2256 SNB2257 SLP121 P0000 60002 T00171006 10050 20017 51048 $
KCLE 240051Z 25018G23KT 9SM -SN OVC018 02/M01 A2990 RMK AO2 SLP131 P0000 T00171011 $
KCLE 240151Z 27016G24KT 9SM -SN OVC018 01/M02 A2993 RMK AO2 PK WND 26028/0141 SLP142 P0000 T00111022 $